sensor_id;sensor_type;location;lat;lon;timestamp;temperature;humidity
29363;DHT22;16349;53.672;10.014;2023-03-11T00:02:15;0.60;99.90
29363;DHT22;16349;53.672;10.014;2023-03-11T00:04:42;0.60;99.90
29363;DHT22;16349;53.672;10.014;2023-03-11T00:07:10;0.50;99.90
29363;DHT22;16349;53.672;10.014;2023-03-11T00:09:37;0.60;99.90
29363;DHT22;16349;53.672;10.014;2023-03-11T00:12:06;0.60;99.90
29363;DHT22;16349;53.672;10.014;2023-03-11T00:14:33;0.60;99.90
29363;DHT22;16349;53.672;10.014;2023-03-11T00:17:00;0.60;99.90
29363;DHT22;16349;53.672;10.014;2023-03-11T00:19:27;0.60;99.90
29363;DHT22;16349;53.672;10.014;2023-03-11T00:21:54;0.60;99.90
29363;DHT22;16349;53.672;10.014;2023-03-11T00:24:21;0.60;99.90
29363;DHT22;16349;53.672;10.014;2023-03-11T00:26:48;0.60;99.90
29363;DHT22;16349;53.672;10.014;2023-03-11T00:29:17;0.60;99.90
29363;DHT22;16349;53.672;10.014;2023-03-11T00:31:44;0.60;99.90
29363;DHT22;16349;53.672;10.014;2023-03-11T00:34:10;0.60;99.90
29363;DHT22;16349;53.672;10.014;2023-03-11T00:36:38;0.60;99.90
29363;DHT22;16349;53.672;10.014;2023-03-11T00:39:05;0.60;99.90
29363;DHT22;16349;53.672;10.014;2023-03-11T00:41:32;0.60;99.90
29363;DHT22;16349;53.672;10.014;2023-03-11T00:43:59;0.70;99.90
29363;DHT22;16349;53.672;10.014;2023-03-11T00:46:27;0.60;99.90
29363;DHT22;16349;53.672;10.014;2023-03-11T00:48:56;0.60;99.90
29363;DHT22;16349;53.672;10.014;2023-03-11T00:51:22;0.60;99.90
29363;DHT22;16349;53.672;10.014;2023-03-11T00:53:49;0.70;99.90
29363;DHT22;16349;53.672;10.014;2023-03-11T00:56:17;0.70;99.90
29363;DHT22;16349;53.672;10.014;2023-03-11T00:58:44;0.70;99.90
29363;DHT22;16349;53.672;10.014;2023-03-11T01:01:13;0.70;99.90
29363;DHT22;16349;53.672;10.014;2023-03-11T01:03:43;0.70;99.90
29363;DHT22;16349;53.672;10.014;2023-03-11T01:06:11;0.70;99.90
29363;DHT22;16349;53.672;10.014;2023-03-11T01:08:39;0.70;99.90
29363;DHT22;16349;53.672;10.014;2023-03-11T01:11:06;0.70;99.90
29363;DHT22;16349;53.672;10.014;2023-03-11T01:13:33;0.60;99.90
29363;DHT22;16349;53.672;10.014;2023-03-11T01:16:01;0.70;99.90
29363;DHT22;16349;53.672;10.014;2023-03-11T01:18:28;0.70;99.90
29363;DHT22;16349;53.672;10.014;2023-03-11T01:20:56;0.70;99.90
29363;DHT22;16349;53.672;10.014;2023-03-11T01:23:22;0.60;99.90
29363;DHT22;16349;53.672;10.014;2023-03-11T01:25:49;0.70;99.90
29363;DHT22;16349;53.672;10.014;2023-03-11T01:28:35;0.60;99.90
29363;DHT22;16349;53.672;10.014;2023-03-11T01:31:02;0.60;99.90
29363;DHT22;16349;53.672;10.014;2023-03-11T01:33:29;0.60;99.90
29363;DHT22;16349;53.672;10.014;2023-03-11T01:35:57;0.60;99.90
29363;DHT22;16349;53.672;10.014;2023-03-11T01:38:26;0.60;99.90
29363;DHT22;16349;53.672;10.014;2023-03-11T01:40:53;0.60;99.90
29363;DHT22;16349;53.672;10.014;2023-03-11T01:43:46;0.60;99.90
29363;DHT22;16349;53.672;10.014;2023-03-11T01:46:22;0.60;99.90
29363;DHT22;16349;53.672;10.014;2023-03-11T01:48:50;0.60;99.90
29363;DHT22;16349;53.672;10.014;2023-03-11T01:51:24;0.60;99.90
29363;DHT22;16349;53.672;10.014;2023-03-11T01:53:54;0.60;99.90
29363;DHT22;16349;53.672;10.014;2023-03-11T01:56:22;0.60;99.90
29363;DHT22;16349;53.672;10.014;2023-03-11T01:58:52;0.60;99.90
29363;DHT22;16349;53.672;10.014;2023-03-11T02:01:21;0.60;99.90
29363;DHT22;16349;53.672;10.014;2023-03-11T02:03:49;0.50;99.90
29363;DHT22;16349;53.672;10.014;2023-03-11T02:06:20;0.50;99.90
29363;DHT22;16349;53.672;10.014;2023-03-11T02:08:49;0.50;99.90
29363;DHT22;16349;53.672;10.014;2023-03-11T02:11:19;0.50;99.90
29363;DHT22;16349;53.672;10.014;2023-03-11T02:13:53;0.40;99.90
29363;DHT22;16349;53.672;10.014;2023-03-11T02:16:23;0.40;99.90
29363;DHT22;16349;53.672;10.014;2023-03-11T02:18:50;0.40;99.90
29363;DHT22;16349;53.672;10.014;2023-03-11T02:21:22;0.30;99.90
29363;DHT22;16349;53.672;10.014;2023-03-11T02:23:56;0.30;99.90
29363;DHT22;16349;53.672;10.014;2023-03-11T02:26:31;0.30;99.90
29363;DHT22;16349;53.672;10.014;2023-03-11T02:29:02;0.30;99.90
29363;DHT22;16349;53.672;10.014;2023-03-11T02:31:31;0.30;99.90
29363;DHT22;16349;53.672;10.014;2023-03-11T02:34:02;0.30;99.90
29363;DHT22;16349;53.672;10.014;2023-03-11T02:36:33;0.30;99.90
29363;DHT22;16349;53.672;10.014;2023-03-11T02:39:01;0.30;99.90
29363;DHT22;16349;53.672;10.014;2023-03-11T02:41:29;0.20;99.90
29363;DHT22;16349;53.672;10.014;2023-03-11T02:43:59;0.20;99.90
29363;DHT22;16349;53.672;10.014;2023-03-11T02:46:29;0.30;99.90
29363;DHT22;16349;53.672;10.014;2023-03-11T02:48:57;0.20;99.90
29363;DHT22;16349;53.672;10.014;2023-03-11T02:51:25;0.20;99.90
29363;DHT22;16349;53.672;10.014;2023-03-11T02:53:55;0.20;99.90
29363;DHT22;16349;53.672;10.014;2023-03-11T02:56:22;0.20;99.90
29363;DHT22;16349;53.672;10.014;2023-03-11T02:58:49;0.20;99.90
29363;DHT22;16349;53.672;10.014;2023-03-11T03:01:17;0.10;99.90
29363;DHT22;16349;53.672;10.014;2023-03-11T03:03:45;0.10;99.90
29363;DHT22;16349;53.672;10.014;2023-03-11T03:06:12;0.10;99.90
29363;DHT22;16349;53.672;10.014;2023-03-11T03:08:39;0.10;99.90
29363;DHT22;16349;53.672;10.014;2023-03-11T03:11:06;0.10;99.90
29363;DHT22;16349;53.672;10.014;2023-03-11T03:13:34;0.10;99.90
29363;DHT22;16349;53.672;10.014;2023-03-11T03:16:01;0.10;99.90
29363;DHT22;16349;53.672;10.014;2023-03-11T03:18:29;0.00;99.90
29363;DHT22;16349;53.672;10.014;2023-03-11T03:20:56;0.00;99.90
29363;DHT22;16349;53.672;10.014;2023-03-11T03:23:26;0.00;99.90
29363;DHT22;16349;53.672;10.014;2023-03-11T03:25:53;0.00;99.90
29363;DHT22;16349;53.672;10.014;2023-03-11T03:28:20;0.00;99.90
29363;DHT22;16349;53.672;10.014;2023-03-11T03:30:48;0.00;99.90
29363;DHT22;16349;53.672;10.014;2023-03-11T03:33:16;0.00;99.90
29363;DHT22;16349;53.672;10.014;2023-03-11T03:35:45;0.00;99.90
29363;DHT22;16349;53.672;10.014;2023-03-11T03:38:22;0.00;99.90
29363;DHT22;16349;53.672;10.014;2023-03-11T03:40:51;0.00;99.90
29363;DHT22;16349;53.672;10.014;2023-03-11T03:43:19;0.00;99.90
29363;DHT22;16349;53.672;10.014;2023-03-11T03:46:05;0.00;99.90
29363;DHT22;16349;53.672;10.014;2023-03-11T03:48:40;0.10;99.90
29363;DHT22;16349;53.672;10.014;2023-03-11T03:51:11;0.10;99.90
29363;DHT22;16349;53.672;10.014;2023-03-11T03:54:00;0.10;99.90
29363;DHT22;16349;53.672;10.014;2023-03-11T03:56:27;0.10;99.90
29363;DHT22;16349;53.672;10.014;2023-03-11T03:58:54;0.10;99.90
29363;DHT22;16349;53.672;10.014;2023-03-11T04:01:24;0.10;99.90
29363;DHT22;16349;53.672;10.014;2023-03-11T04:03:52;0.10;99.90
29363;DHT22;16349;53.672;10.014;2023-03-11T04:06:23;0.10;99.90
29363;DHT22;16349;53.672;10.014;2023-03-11T04:08:56;0.10;99.90
29363;DHT22;16349;53.672;10.014;2023-03-11T04:11:28;0.10;99.90
29363;DHT22;16349;53.672;10.014;2023-03-11T04:13:55;0.10;99.90
29363;DHT22;16349;53.672;10.014;2023-03-11T04:16:23;0.10;99.90
29363;DHT22;16349;53.672;10.014;2023-03-11T04:18:56;0.10;99.90
29363;DHT22;16349;53.672;10.014;2023-03-11T04:21:25;0.10;99.90
29363;DHT22;16349;53.672;10.014;2023-03-11T04:23:53;0.10;99.90
29363;DHT22;16349;53.672;10.014;2023-03-11T04:26:27;0.10;99.90
29363;DHT22;16349;53.672;10.014;2023-03-11T04:28:54;0.10;99.90
29363;DHT22;16349;53.672;10.014;2023-03-11T04:31:22;0.10;99.90
29363;DHT22;16349;53.672;10.014;2023-03-11T04:33:49;0.00;99.90
29363;DHT22;16349;53.672;10.014;2023-03-11T04:36:39;0.00;99.90
29363;DHT22;16349;53.672;10.014;2023-03-11T04:39:07;0.00;99.90
29363;DHT22;16349;53.672;10.014;2023-03-11T04:41:39;-0.10;99.90
29363;DHT22;16349;53.672;10.014;2023-03-11T04:44:07;-0.10;99.90
29363;DHT22;16349;53.672;10.014;2023-03-11T04:46:35;-0.20;99.90
29363;DHT22;16349;53.672;10.014;2023-03-11T04:49:04;-0.20;99.90
29363;DHT22;16349;53.672;10.014;2023-03-11T04:51:55;-0.20;99.90
29363;DHT22;16349;53.672;10.014;2023-03-11T04:54:43;-0.20;99.90
29363;DHT22;16349;53.672;10.014;2023-03-11T04:57:11;-0.30;99.90
29363;DHT22;16349;53.672;10.014;2023-03-11T04:59:41;-0.30;99.90
29363;DHT22;16349;53.672;10.014;2023-03-11T05:02:08;-0.30;99.90
29363;DHT22;16349;53.672;10.014;2023-03-11T05:04:36;-0.40;99.90
29363;DHT22;16349;53.672;10.014;2023-03-11T05:07:04;-0.40;99.90
29363;DHT22;16349;53.672;10.014;2023-03-11T05:09:31;-0.50;99.90
29363;DHT22;16349;53.672;10.014;2023-03-11T05:11:57;-0.50;99.90
29363;DHT22;16349;53.672;10.014;2023-03-11T05:14:26;-0.50;99.90
29363;DHT22;16349;53.672;10.014;2023-03-11T05:16:54;-0.50;99.90
29363;DHT22;16349;53.672;10.014;2023-03-11T05:19:21;-0.60;99.90
29363;DHT22;16349;53.672;10.014;2023-03-11T05:22:05;-0.60;99.90
29363;DHT22;16349;53.672;10.014;2023-03-11T05:24:32;-0.70;99.90
29363;DHT22;16349;53.672;10.014;2023-03-11T05:27:00;-0.70;99.90
29363;DHT22;16349;53.672;10.014;2023-03-11T05:29:27;-0.70;99.90
29363;DHT22;16349;53.672;10.014;2023-03-11T05:31:54;-0.80;99.90
29363;DHT22;16349;53.672;10.014;2023-03-11T05:34:21;-0.80;99.90
29363;DHT22;16349;53.672;10.014;2023-03-11T05:36:48;-0.80;99.90
29363;DHT22;16349;53.672;10.014;2023-03-11T05:39:17;-0.90;99.90
29363;DHT22;16349;53.672;10.014;2023-03-11T05:41:45;-0.90;99.90
29363;DHT22;16349;53.672;10.014;2023-03-11T05:44:12;-0.90;99.90
29363;DHT22;16349;53.672;10.014;2023-03-11T05:46:40;-1.00;99.90
29363;DHT22;16349;53.672;10.014;2023-03-11T05:49:06;-1.00;99.90
29363;DHT22;16349;53.672;10.014;2023-03-11T05:51:34;-1.00;99.90
29363;DHT22;16349;53.672;10.014;2023-03-11T05:54:03;-1.00;99.90
29363;DHT22;16349;53.672;10.014;2023-03-11T05:56:38;-1.10;99.90
29363;DHT22;16349;53.672;10.014;2023-03-11T05:59:05;-1.10;99.90
29363;DHT22;16349;53.672;10.014;2023-03-11T06:01:33;-1.10;99.90
29363;DHT22;16349;53.672;10.014;2023-03-11T06:04:00;-1.10;99.90
29363;DHT22;16349;53.672;10.014;2023-03-11T06:06:28;-1.20;99.90
29363;DHT22;16349;53.672;10.014;2023-03-11T06:08:55;-1.20;99.90
29363;DHT22;16349;53.672;10.014;2023-03-11T06:11:26;-1.20;99.90
29363;DHT22;16349;53.672;10.014;2023-03-11T06:13:55;-1.20;99.90
29363;DHT22;16349;53.672;10.014;2023-03-11T06:16:25;-1.20;99.90
29363;DHT22;16349;53.672;10.014;2023-03-11T06:18:55;-1.20;99.90
29363;DHT22;16349;53.672;10.014;2023-03-11T06:21:23;-1.20;99.90
29363;DHT22;16349;53.672;10.014;2023-03-11T06:23:51;-1.20;99.90
29363;DHT22;16349;53.672;10.014;2023-03-11T06:26:19;-1.20;99.90
29363;DHT22;16349;53.672;10.014;2023-03-11T06:28:48;-1.20;99.90
29363;DHT22;16349;53.672;10.014;2023-03-11T06:31:18;-1.20;99.90
29363;DHT22;16349;53.672;10.014;2023-03-11T06:33:45;-1.10;99.90
29363;DHT22;16349;53.672;10.014;2023-03-11T06:36:15;-1.20;99.90
29363;DHT22;16349;53.672;10.014;2023-03-11T06:38:42;-1.10;99.90
29363;DHT22;16349;53.672;10.014;2023-03-11T06:41:09;-1.10;99.90
29363;DHT22;16349;53.672;10.014;2023-03-11T06:43:36;-1.10;99.90
29363;DHT22;16349;53.672;10.014;2023-03-11T06:46:08;-1.10;99.90
29363;DHT22;16349;53.672;10.014;2023-03-11T06:48:36;-1.00;99.90
29363;DHT22;16349;53.672;10.014;2023-03-11T06:51:04;-1.00;99.90
29363;DHT22;16349;53.672;10.014;2023-03-11T06:53:32;-1.00;99.90
29363;DHT22;16349;53.672;10.014;2023-03-11T06:56:01;-1.00;99.90
29363;DHT22;16349;53.672;10.014;2023-03-11T06:58:31;-1.00;99.90
29363;DHT22;16349;53.672;10.014;2023-03-11T07:01:00;-1.00;99.90
29363;DHT22;16349;53.672;10.014;2023-03-11T07:03:27;-0.90;99.90
29363;DHT22;16349;53.672;10.014;2023-03-11T07:05:56;-0.80;99.90
29363;DHT22;16349;53.672;10.014;2023-03-11T07:08:23;-0.80;99.90
29363;DHT22;16349;53.672;10.014;2023-03-11T07:11:00;-0.80;99.90
29363;DHT22;16349;53.672;10.014;2023-03-11T07:13:27;-0.70;99.90
29363;DHT22;16349;53.672;10.014;2023-03-11T07:16:02;-0.70;99.90
29363;DHT22;16349;53.672;10.014;2023-03-11T07:18:29;-0.60;99.90
29363;DHT22;16349;53.672;10.014;2023-03-11T07:20:57;-0.60;99.90
29363;DHT22;16349;53.672;10.014;2023-03-11T07:23:24;-0.60;99.90
29363;DHT22;16349;53.672;10.014;2023-03-11T07:25:51;-0.50;99.90
29363;DHT22;16349;53.672;10.014;2023-03-11T07:28:20;-0.40;99.90
29363;DHT22;16349;53.672;10.014;2023-03-11T07:30:47;-0.40;99.90
29363;DHT22;16349;53.672;10.014;2023-03-11T07:33:14;-0.40;99.90
29363;DHT22;16349;53.672;10.014;2023-03-11T07:35:42;-0.30;99.90
29363;DHT22;16349;53.672;10.014;2023-03-11T07:38:10;-0.30;99.90
29363;DHT22;16349;53.672;10.014;2023-03-11T07:40:37;-0.20;99.90
29363;DHT22;16349;53.672;10.014;2023-03-11T07:43:04;-0.20;99.90
29363;DHT22;16349;53.672;10.014;2023-03-11T07:45:31;-0.10;99.90
29363;DHT22;16349;53.672;10.014;2023-03-11T07:47:58;-0.10;99.90
29363;DHT22;16349;53.672;10.014;2023-03-11T07:50:25;0.00;99.90
29363;DHT22;16349;53.672;10.014;2023-03-11T07:52:52;0.00;99.90
29363;DHT22;16349;53.672;10.014;2023-03-11T07:55:20;0.10;99.90
29363;DHT22;16349;53.672;10.014;2023-03-11T07:57:48;0.20;99.90
29363;DHT22;16349;53.672;10.014;2023-03-11T08:00:16;0.20;99.90
29363;DHT22;16349;53.672;10.014;2023-03-11T08:02:43;0.30;99.90
29363;DHT22;16349;53.672;10.014;2023-03-11T08:05:32;0.50;99.90
29363;DHT22;16349;53.672;10.014;2023-03-11T08:07:59;0.60;99.90
29363;DHT22;16349;53.672;10.014;2023-03-11T08:10:27;0.60;99.90
29363;DHT22;16349;53.672;10.014;2023-03-11T08:12:54;0.60;99.90
29363;DHT22;16349;53.672;10.014;2023-03-11T08:15:21;0.60;99.90
29363;DHT22;16349;53.672;10.014;2023-03-11T08:17:48;0.70;99.90
29363;DHT22;16349;53.672;10.014;2023-03-11T08:20:15;0.70;99.90
29363;DHT22;16349;53.672;10.014;2023-03-11T08:22:42;0.70;99.90
29363;DHT22;16349;53.672;10.014;2023-03-11T08:25:09;0.70;99.90
29363;DHT22;16349;53.672;10.014;2023-03-11T08:27:37;0.70;99.90
29363;DHT22;16349;53.672;10.014;2023-03-11T08:30:05;0.80;99.90
29363;DHT22;16349;53.672;10.014;2023-03-11T08:32:33;0.80;99.90
29363;DHT22;16349;53.672;10.014;2023-03-11T08:34:59;0.80;99.90
29363;DHT22;16349;53.672;10.014;2023-03-11T08:37:27;0.80;99.90
29363;DHT22;16349;53.672;10.014;2023-03-11T08:39:53;0.90;99.90
29363;DHT22;16349;53.672;10.014;2023-03-11T08:42:21;0.90;99.90
29363;DHT22;16349;53.672;10.014;2023-03-11T08:44:50;1.00;99.90
29363;DHT22;16349;53.672;10.014;2023-03-11T08:47:17;1.00;99.90
29363;DHT22;16349;53.672;10.014;2023-03-11T08:49:44;1.00;99.90
29363;DHT22;16349;53.672;10.014;2023-03-11T08:52:10;1.10;99.90
29363;DHT22;16349;53.672;10.014;2023-03-11T08:54:37;1.10;99.90
29363;DHT22;16349;53.672;10.014;2023-03-11T08:57:04;1.10;99.90
29363;DHT22;16349;53.672;10.014;2023-03-11T08:59:31;1.20;99.90
29363;DHT22;16349;53.672;10.014;2023-03-11T09:01:59;1.20;99.90
29363;DHT22;16349;53.672;10.014;2023-03-11T09:04:29;1.30;99.90
29363;DHT22;16349;53.672;10.014;2023-03-11T09:06:55;1.30;99.90
29363;DHT22;16349;53.672;10.014;2023-03-11T09:09:22;1.40;99.90
29363;DHT22;16349;53.672;10.014;2023-03-11T09:11:49;1.40;99.90
29363;DHT22;16349;53.672;10.014;2023-03-11T09:14:15;1.40;99.90
29363;DHT22;16349;53.672;10.014;2023-03-11T09:16:42;1.50;99.90
29363;DHT22;16349;53.672;10.014;2023-03-11T09:19:10;1.50;99.90
29363;DHT22;16349;53.672;10.014;2023-03-11T09:21:37;1.50;99.90
29363;DHT22;16349;53.672;10.014;2023-03-11T09:24:04;1.50;99.90
29363;DHT22;16349;53.672;10.014;2023-03-11T09:26:32;1.60;99.90
29363;DHT22;16349;53.672;10.014;2023-03-11T09:28:59;1.70;99.90
29363;DHT22;16349;53.672;10.014;2023-03-11T09:31:25;1.70;99.90
29363;DHT22;16349;53.672;10.014;2023-03-11T09:33:52;1.70;99.90
29363;DHT22;16349;53.672;10.014;2023-03-11T09:36:22;1.70;99.90
29363;DHT22;16349;53.672;10.014;2023-03-11T09:38:49;1.80;99.90
29363;DHT22;16349;53.672;10.014;2023-03-11T09:41:26;1.80;99.90
29363;DHT22;16349;53.672;10.014;2023-03-11T09:44:04;1.90;99.90
29363;DHT22;16349;53.672;10.014;2023-03-11T09:46:59;1.90;99.90
29363;DHT22;16349;53.672;10.014;2023-03-11T09:52:51;2.10;99.90
29363;DHT22;16349;53.672;10.014;2023-03-11T09:55:27;2.10;99.90
29363;DHT22;16349;53.672;10.014;2023-03-11T09:57:58;2.10;99.90
29363;DHT22;16349;53.672;10.014;2023-03-11T10:00:27;2.20;99.90
29363;DHT22;16349;53.672;10.014;2023-03-11T10:02:55;2.20;99.90
29363;DHT22;16349;53.672;10.014;2023-03-11T10:05:25;2.30;99.90
29363;DHT22;16349;53.672;10.014;2023-03-11T10:07:57;2.20;99.90
29363;DHT22;16349;53.672;10.014;2023-03-11T10:10:28;2.30;99.90
29363;DHT22;16349;53.672;10.014;2023-03-11T10:13:02;2.30;99.90
29363;DHT22;16349;53.672;10.014;2023-03-11T10:15:39;2.40;99.90
29363;DHT22;16349;53.672;10.014;2023-03-11T10:18:34;2.50;99.90
29363;DHT22;16349;53.672;10.014;2023-03-11T10:21:10;2.60;99.90
29363;DHT22;16349;53.672;10.014;2023-03-11T10:23:54;2.60;99.90
29363;DHT22;16349;53.672;10.014;2023-03-11T10:26:26;2.60;99.90
29363;DHT22;16349;53.672;10.014;2023-03-11T10:29:00;2.60;99.90
29363;DHT22;16349;53.672;10.014;2023-03-11T10:31:32;2.70;99.90
29363;DHT22;16349;53.672;10.014;2023-03-11T10:34:02;2.70;99.90
29363;DHT22;16349;53.672;10.014;2023-03-11T10:36:36;2.70;99.90
29363;DHT22;16349;53.672;10.014;2023-03-11T10:39:05;2.80;99.90
29363;DHT22;16349;53.672;10.014;2023-03-11T10:41:40;2.80;99.90
29363;DHT22;16349;53.672;10.014;2023-03-11T10:44:12;2.80;99.90
29363;DHT22;16349;53.672;10.014;2023-03-11T10:46:39;2.90;99.90
29363;DHT22;16349;53.672;10.014;2023-03-11T10:49:12;3.00;99.90
29363;DHT22;16349;53.672;10.014;2023-03-11T10:51:40;3.00;99.90
29363;DHT22;16349;53.672;10.014;2023-03-11T10:54:20;3.00;99.90
29363;DHT22;16349;53.672;10.014;2023-03-11T10:56:53;3.10;99.90
29363;DHT22;16349;53.672;10.014;2023-03-11T10:59:23;3.10;99.90
29363;DHT22;16349;53.672;10.014;2023-03-11T11:01:55;3.20;99.90
29363;DHT22;16349;53.672;10.014;2023-03-11T11:04:28;3.30;99.90
29363;DHT22;16349;53.672;10.014;2023-03-11T11:06:55;3.30;99.90
29363;DHT22;16349;53.672;10.014;2023-03-11T11:09:25;3.40;99.90
29363;DHT22;16349;53.672;10.014;2023-03-11T11:12:06;3.40;99.90
29363;DHT22;16349;53.672;10.014;2023-03-11T11:14:45;3.30;99.90
29363;DHT22;16349;53.672;10.014;2023-03-11T11:17:17;3.30;99.90
29363;DHT22;16349;53.672;10.014;2023-03-11T11:19:47;3.40;99.90
29363;DHT22;16349;53.672;10.014;2023-03-11T11:22:16;3.50;99.90
29363;DHT22;16349;53.672;10.014;2023-03-11T11:24:46;3.50;99.90
29363;DHT22;16349;53.672;10.014;2023-03-11T11:27:16;3.60;99.90
29363;DHT22;16349;53.672;10.014;2023-03-11T11:29:43;3.60;99.90
29363;DHT22;16349;53.672;10.014;2023-03-11T11:32:17;3.70;99.90
29363;DHT22;16349;53.672;10.014;2023-03-11T11:34:53;3.70;99.90
29363;DHT22;16349;53.672;10.014;2023-03-11T11:37:23;3.80;99.90
29363;DHT22;16349;53.672;10.014;2023-03-11T11:39:56;3.90;99.90
29363;DHT22;16349;53.672;10.014;2023-03-11T11:42:25;3.90;99.90
29363;DHT22;16349;53.672;10.014;2023-03-11T11:44:57;4.00;99.90
29363;DHT22;16349;53.672;10.014;2023-03-11T11:47:31;4.00;99.90
29363;DHT22;16349;53.672;10.014;2023-03-11T11:50:00;4.10;99.90
29363;DHT22;16349;53.672;10.014;2023-03-11T11:52:32;4.20;99.90
29363;DHT22;16349;53.672;10.014;2023-03-11T11:55:05;4.20;99.90
29363;DHT22;16349;53.672;10.014;2023-03-11T11:57:33;4.30;99.90
29363;DHT22;16349;53.672;10.014;2023-03-11T12:00:01;4.40;99.90
29363;DHT22;16349;53.672;10.014;2023-03-11T12:02:45;4.40;99.90
29363;DHT22;16349;53.672;10.014;2023-03-11T12:05:17;4.50;99.90
29363;DHT22;16349;53.672;10.014;2023-03-11T12:08:07;4.60;99.90
29363;DHT22;16349;53.672;10.014;2023-03-11T12:10:43;4.70;99.90
29363;DHT22;16349;53.672;10.014;2023-03-11T12:13:39;4.80;99.90
29363;DHT22;16349;53.672;10.014;2023-03-11T12:16:18;4.90;99.90
29363;DHT22;16349;53.672;10.014;2023-03-11T12:18:50;5.00;99.90
29363;DHT22;16349;53.672;10.014;2023-03-11T12:21:30;5.00;99.90
29363;DHT22;16349;53.672;10.014;2023-03-11T12:24:34;5.10;99.90
29363;DHT22;16349;53.672;10.014;2023-03-11T12:27:14;5.20;99.90
29363;DHT22;16349;53.672;10.014;2023-03-11T12:29:45;5.20;99.90
29363;DHT22;16349;53.672;10.014;2023-03-11T12:32:21;5.30;99.90
29363;DHT22;16349;53.672;10.014;2023-03-11T12:34:48;5.20;99.90
29363;DHT22;16349;53.672;10.014;2023-03-11T12:37:19;5.20;99.90
29363;DHT22;16349;53.672;10.014;2023-03-11T12:39:46;5.10;99.90
29363;DHT22;16349;53.672;10.014;2023-03-11T12:42:19;5.00;99.90
29363;DHT22;16349;53.672;10.014;2023-03-11T12:44:47;4.90;99.90
29363;DHT22;16349;53.672;10.014;2023-03-11T12:47:23;4.90;99.90
29363;DHT22;16349;53.672;10.014;2023-03-11T12:50:37;4.90;99.90
29363;DHT22;16349;53.672;10.014;2023-03-11T12:53:43;4.90;99.90
29363;DHT22;16349;53.672;10.014;2023-03-11T12:56:20;5.00;99.90
29363;DHT22;16349;53.672;10.014;2023-03-11T12:59:12;5.00;99.90
29363;DHT22;16349;53.672;10.014;2023-03-11T13:01:52;5.10;99.90
29363;DHT22;16349;53.672;10.014;2023-03-11T13:04:30;5.30;99.90
29363;DHT22;16349;53.672;10.014;2023-03-11T13:07:36;5.40;99.90
29363;DHT22;16349;53.672;10.014;2023-03-11T13:10:17;5.30;99.90
29363;DHT22;16349;53.672;10.014;2023-03-11T13:12:46;5.20;99.90
29363;DHT22;16349;53.672;10.014;2023-03-11T13:15:42;5.10;99.90
29363;DHT22;16349;53.672;10.014;2023-03-11T13:18:22;5.20;99.90
29363;DHT22;16349;53.672;10.014;2023-03-11T13:20:54;5.30;99.90
29363;DHT22;16349;53.672;10.014;2023-03-11T13:23:33;5.30;99.90
29363;DHT22;16349;53.672;10.014;2023-03-11T13:26:17;5.40;99.90
29363;DHT22;16349;53.672;10.014;2023-03-11T13:29:18;5.50;99.90
29363;DHT22;16349;53.672;10.014;2023-03-11T13:32:03;5.60;99.90
29363;DHT22;16349;53.672;10.014;2023-03-11T13:34:40;5.70;99.90
29363;DHT22;16349;53.672;10.014;2023-03-11T13:37:19;5.90;99.90
29363;DHT22;16349;53.672;10.014;2023-03-11T13:39:57;6.00;99.90
29363;DHT22;16349;53.672;10.014;2023-03-11T13:42:30;6.10;99.90
29363;DHT22;16349;53.672;10.014;2023-03-11T13:44:58;6.10;99.90
29363;DHT22;16349;53.672;10.014;2023-03-11T13:47:28;6.60;99.90
29363;DHT22;16349;53.672;10.014;2023-03-11T13:50:00;6.70;99.90
29363;DHT22;16349;53.672;10.014;2023-03-11T13:52:31;6.80;99.90
29363;DHT22;16349;53.672;10.014;2023-03-11T13:55:00;7.10;99.90
29363;DHT22;16349;53.672;10.014;2023-03-11T13:57:29;7.50;99.90
29363;DHT22;16349;53.672;10.014;2023-03-11T14:00:04;7.30;99.90
29363;DHT22;16349;53.672;10.014;2023-03-11T14:02:45;6.80;99.90
29363;DHT22;16349;53.672;10.014;2023-03-11T14:05:15;6.40;99.90
29363;DHT22;16349;53.672;10.014;2023-03-11T14:07:42;6.20;99.90
29363;DHT22;16349;53.672;10.014;2023-03-11T14:10:18;6.00;99.90
29363;DHT22;16349;53.672;10.014;2023-03-11T14:12:48;6.30;99.90
29363;DHT22;16349;53.672;10.014;2023-03-11T14:15:20;6.60;99.90
29363;DHT22;16349;53.672;10.014;2023-03-11T14:18:29;6.70;99.90
29363;DHT22;16349;53.672;10.014;2023-03-11T14:21:18;7.20;99.90
29363;DHT22;16349;53.672;10.014;2023-03-11T14:23:46;7.00;99.90
29363;DHT22;16349;53.672;10.014;2023-03-11T14:26:17;6.70;99.90
29363;DHT22;16349;53.672;10.014;2023-03-11T14:28:47;6.40;99.90
29363;DHT22;16349;53.672;10.014;2023-03-11T14:31:24;6.20;99.90
29363;DHT22;16349;53.672;10.014;2023-03-11T14:33:57;6.10;99.90
29363;DHT22;16349;53.672;10.014;2023-03-11T14:36:29;6.50;99.90
29363;DHT22;16349;53.672;10.014;2023-03-11T14:38:56;6.50;99.90
29363;DHT22;16349;53.672;10.014;2023-03-11T14:41:23;6.30;99.90
29363;DHT22;16349;53.672;10.014;2023-03-11T14:43:52;6.20;99.90
29363;DHT22;16349;53.672;10.014;2023-03-11T14:46:23;6.10;99.90
29363;DHT22;16349;53.672;10.014;2023-03-11T14:48:51;6.00;99.90
29363;DHT22;16349;53.672;10.014;2023-03-11T14:51:24;6.00;99.90
29363;DHT22;16349;53.672;10.014;2023-03-11T14:54:01;5.90;99.90
29363;DHT22;16349;53.672;10.014;2023-03-11T14:56:32;5.90;99.90
29363;DHT22;16349;53.672;10.014;2023-03-11T14:59:05;5.70;99.90
29363;DHT22;16349;53.672;10.014;2023-03-11T15:01:35;5.60;99.90
29363;DHT22;16349;53.672;10.014;2023-03-11T15:04:07;5.60;99.90
29363;DHT22;16349;53.672;10.014;2023-03-11T15:06:38;5.50;99.90
29363;DHT22;16349;53.672;10.014;2023-03-11T15:09:09;5.50;99.90
29363;DHT22;16349;53.672;10.014;2023-03-11T15:11:45;5.40;99.90
29363;DHT22;16349;53.672;10.014;2023-03-11T15:14:18;5.40;99.90
29363;DHT22;16349;53.672;10.014;2023-03-11T15:16:46;5.30;99.90
29363;DHT22;16349;53.672;10.014;2023-03-11T15:19:21;5.30;99.90
29363;DHT22;16349;53.672;10.014;2023-03-11T15:21:50;5.30;99.90
29363;DHT22;16349;53.672;10.014;2023-03-11T15:24:20;5.30;99.90
29363;DHT22;16349;53.672;10.014;2023-03-11T15:26:53;5.30;99.90
29363;DHT22;16349;53.672;10.014;2023-03-11T15:29:20;5.20;99.90
29363;DHT22;16349;53.672;10.014;2023-03-11T15:31:47;5.20;99.90
29363;DHT22;16349;53.672;10.014;2023-03-11T15:34:24;5.20;99.90
29363;DHT22;16349;53.672;10.014;2023-03-11T15:37:14;5.20;99.90
29363;DHT22;16349;53.672;10.014;2023-03-11T15:39:46;5.10;99.90
29363;DHT22;16349;53.672;10.014;2023-03-11T15:42:21;5.10;99.90
29363;DHT22;16349;53.672;10.014;2023-03-11T15:47:38;5.00;99.90
29363;DHT22;16349;53.672;10.014;2023-03-11T15:50:25;4.70;99.90
29363;DHT22;16349;53.672;10.014;2023-03-11T15:52:55;4.10;99.90
29363;DHT22;16349;53.672;10.014;2023-03-11T15:55:22;3.80;99.90
29363;DHT22;16349;53.672;10.014;2023-03-11T15:57:50;3.60;99.90
29363;DHT22;16349;53.672;10.014;2023-03-11T16:00:20;3.50;99.90